Time;durP1;ratioP1;P1;durP2;ratioP2;P2;SDS_P1;SDS_P2;PMS_P1;PMS_P2;Temp;Humidity;BMP_temperature;BMP_pressure;BME280_temperature;BME280_humidity;BME280_pressure;Samples;Min_cycle;Max_cycle;Signal;HPM_P1;HPM_P2
2023/08/29 00:00:43;;;;;;;3.75;3.10;;;;;;;18.89;60.68;99443.56;5011454;28;20222;-84
2023/08/29 00:03:09;;;;;;;4.20;3.00;;;;;;;18.85;60.63;99437.69;5011533;28;20049;-84
2023/08/29 00:05:36;;;;;;;4.22;3.35;;;;;;;18.83;60.81;99439.66;5011892;28;20054;-84
2023/08/29 00:08:02;;;;;;;4.40;3.15;;;;;;;18.80;61.15;99420.47;5012178;28;20072;-84
2023/08/29 00:10:30;;;;;;;3.45;3.15;;;;;;;18.77;60.84;99423.41;5012246;28;20081;-83
2023/08/29 00:12:56;;;;;;;3.40;3.10;;;;;;;18.73;60.96;99418.38;5012151;28;20065;-84
2023/08/29 00:15:23;;;;;;;4.07;3.35;;;;;;;18.71;61.14;99428.38;5007964;28;20057;-83
2023/08/29 00:17:49;;;;;;;3.45;2.67;;;;;;;18.68;61.14;99415.31;5011789;28;20424;-84
2023/08/29 00:20:16;;;;;;;4.60;2.95;;;;;;;18.65;60.86;99410.28;5019807;28;20420;-84
2023/08/29 00:22:42;;;;;;;3.63;2.88;;;;;;;18.63;60.88;99409.59;5011803;28;20060;-84
2023/08/29 00:25:08;;;;;;;4.95;3.20;;;;;;;18.58;61.45;99394.03;5011340;28;20049;-84
2023/08/29 00:27:35;;;;;;;7.18;3.80;;;;;;;18.55;61.28;99393.50;5011775;28;20049;-84
2023/08/29 00:30:01;;;;;;;5.70;2.85;;;;;;;18.52;61.43;99399.97;4993739;28;20054;-84
2023/08/29 00:32:28;;;;;;;3.70;2.65;;;;;;;18.49;61.06;99408.25;5015588;28;20140;-84
2023/08/29 00:34:54;;;;;;;5.53;3.53;;;;;;;18.44;61.29;99399.88;5015422;28;20065;-84
2023/08/29 00:37:20;;;;;;;4.57;3.40;;;;;;;18.40;61.41;99393.16;4994181;28;20053;-84
2023/08/29 00:39:47;;;;;;;5.22;3.70;;;;;;;18.35;61.34;99386.44;5011535;28;20056;-84
2023/08/29 00:42:13;;;;;;;9.35;3.88;;;;;;;18.31;61.33;99386.88;5011756;28;20136;-84
2023/08/29 00:44:40;;;;;;;4.00;3.63;;;;;;;18.27;61.35;99383.69;5011316;28;20073;-84
2023/08/29 00:47:06;;;;;;;5.15;3.58;;;;;;;18.23;61.60;99385.81;5010765;28;20420;-84
2023/08/29 00:49:36;;;;;;;3.72;3.42;;;;;;;18.19;61.43;99383.56;5011293;28;20042;-84
2023/08/29 00:52:03;;;;;;;3.80;3.33;;;;;;;18.14;61.37;99383.19;5011265;28;20050;-84
2023/08/29 00:54:29;;;;;;;8.20;3.80;;;;;;;18.10;61.74;99390.63;4994070;28;20049;-84
2023/08/29 00:56:56;;;;;;;6.97;3.95;;;;;;;18.07;61.78;99397.06;4993528;28;20050;-84
2023/08/29 00:59:22;;;;;;;4.65;4.15;;;;;;;18.04;62.18;99408.00;5010935;28;20053;-84
2023/08/29 01:01:49;;;;;;;4.65;3.58;;;;;;;18.03;62.23;99394.81;5011154;28;20054;-84
2023/08/29 01:04:15;;;;;;;6.40;3.90;;;;;;;18.02;61.88;99393.13;5011275;28;20046;-83
2023/08/29 01:06:42;;;;;;;3.83;3.28;;;;;;;17.98;61.90;99392.56;5011346;28;20386;-84
2023/08/29 01:09:09;;;;;;;6.57;3.47;;;;;;;17.95;61.70;99399.03;5019246;28;20400;-84
2023/08/29 01:11:47;;;;;;;4.00;3.58;;;;;;;17.93;61.77;99400.16;4993465;28;20485;-84
2023/08/29 01:14:40;;;;;;;5.78;3.38;;;;;;;17.86;61.95;99407.06;5011430;28;20053;-84
2023/08/29 01:17:19;;;;;;;4.13;3.53;;;;;;;17.84;62.18;99404.53;4993387;28;20050;-84
2023/08/29 01:19:50;;;;;;;4.10;3.28;;;;;;;17.85;62.19;99408.88;5010867;28;20049;-84
2023/08/29 01:22:37;;;;;;;8.57;4.18;;;;;;;17.79;62.49;99420.94;5010982;28;20046;-83
2023/08/29 01:25:19;;;;;;;5.90;3.97;;;;;;;17.77;62.88;99411.41;4994214;28;20129;-84
2023/08/29 01:27:47;;;;;;;3.97;3.58;;;;;;;17.79;62.45;99399.63;5016928;28;20046;-83
2023/08/29 01:30:15;;;;;;;4.22;3.65;;;;;;;17.78;61.90;99410.41;5010593;28;20050;-84
2023/08/29 01:32:41;;;;;;;6.55;3.30;;;;;;;17.76;62.12;99418.53;5011091;28;20056;-84
2023/08/29 01:35:12;;;;;;;6.18;3.63;;;;;;;17.71;62.16;99423.47;5011044;28;20108;-84
2023/08/29 01:37:39;;;;;;;4.72;3.72;;;;;;;17.70;62.23;99421.78;4993039;28;20046;-83
2023/08/29 01:40:06;;;;;;;5.72;4.05;;;;;;;17.69;62.07;99422.78;5010456;28;20432;-84
2023/08/29 01:42:32;;;;;;;4.60;3.55;;;;;;;17.66;62.26;99415.91;4991967;28;20519;-83
2023/08/29 01:44:59;;;;;;;4.50;4.00;;;;;;;17.65;62.63;99418.72;4997289;28;20053;-83
2023/08/29 01:47:25;;;;;;;3.88;3.47;;;;;;;17.63;62.79;99424.19;5014254;28;20049;-84
2023/08/29 01:49:52;;;;;;;4.03;3.63;;;;;;;17.61;62.20;99433.28;5020617;28;20602;-84
2023/08/29 01:52:18;;;;;;;5.15;3.92;;;;;;;17.60;62.23;99426.28;5016770;28;20061;-84
2023/08/29 01:54:45;;;;;;;5.88;3.60;;;;;;;17.56;62.21;99429.22;4997010;28;20050;-84
2023/08/29 01:57:14;;;;;;;5.18;3.88;;;;;;;17.52;62.36;99430.50;4996654;28;20057;-84
2023/08/29 01:59:42;;;;;;;5.10;3.95;;;;;;;17.53;62.23;99448.13;5014015;28;20053;-83
2023/08/29 02:02:08;;;;;;;8.55;4.45;;;;;;;17.52;62.33;99445.59;5014208;28;20072;-83
2023/08/29 02:04:35;;;;;;;5.90;4.68;;;;;;;17.51;62.62;99454.56;5004946;28;20053;-83
2023/08/29 02:07:01;;;;;;;5.93;4.63;;;;;;;17.50;62.98;99453.75;5013863;28;20057;-83
2023/08/29 02:09:27;;;;;;;6.30;4.38;;;;;;;17.50;62.90;99453.75;5015524;28;20049;-83
2023/08/29 02:11:55;;;;;;;6.32;4.90;;;;;;;17.50;62.93;99458.22;5013895;28;20584;-84
2023/08/29 02:14:21;;;;;;;7.40;5.32;;;;;;;17.49;63.05;99468.03;5014046;28;20053;-84
2023/08/29 02:16:48;;;;;;;6.72;5.57;;;;;;;17.49;63.13;99470.69;4996309;28;20049;-84
2023/08/29 02:19:14;;;;;;;7.43;5.90;;;;;;;17.50;63.71;99471.53;4996048;28;20050;-84
2023/08/29 02:21:41;;;;;;;5.90;5.32;;;;;;;17.49;63.26;99462.69;5013938;28;20511;-83
2023/08/29 02:24:07;;;;;;;5.93;5.32;;;;;;;17.50;63.76;99469.72;4996670;28;20061;-84
2023/08/29 02:26:34;;;;;;;5.43;4.93;;;;;;;17.50;63.70;99464.41;5005793;28;20049;-84
2023/08/29 02:29:00;;;;;;;5.82;5.25;;;;;;;17.52;63.59;99464.22;5013497;28;20113;-83
2023/08/29 02:31:27;;;;;;;4.97;4.47;;;;;;;17.53;63.36;99463.28;4995842;28;20064;-84
2023/08/29 02:33:53;;;;;;;5.80;4.63;;;;;;;17.53;63.35;99458.78;4996154;28;20492;-84
2023/08/29 02:36:20;;;;;;;4.95;4.45;;;;;;;17.53;63.03;99469.41;5013589;28;20056;-84
2023/08/29 02:38:46;;;;;;;7.43;4.57;;;;;;;17.52;63.13;99473.06;5013116;28;20050;-84
2023/08/29 02:41:13;;;;;;;7.45;4.95;;;;;;;17.51;63.28;99473.22;5013443;28;20079;-84
2023/08/29 02:43:39;;;;;;;5.85;5.25;;;;;;;17.50;63.14;99464.41;4995965;28;20049;-84
2023/08/29 02:46:05;;;;;;;5.82;5.10;;;;;;;17.49;63.21;99468.03;5013417;28;20049;-84
2023/08/29 02:48:35;;;;;;;7.32;5.43;;;;;;;17.48;63.13;99466.34;5012682;28;20579;-83
2023/08/29 02:51:01;;;;;;;9.15;6.07;;;;;;;17.47;63.50;99470.00;4995715;28;20053;-83
2023/08/29 02:53:28;;;;;;;5.95;5.35;;;;;;;17.46;63.49;99473.66;4995772;28;20050;-84
2023/08/29 02:55:56;;;;;;;6.00;5.18;;;;;;;17.44;63.64;99462.28;5013294;28;20401;-83
2023/08/29 02:58:22;;;;;;;5.50;4.95;;;;;;;17.45;63.50;99455.97;5020887;28;20053;-83
2023/08/29 03:00:56;;;;;;;7.88;5.60;;;;;;;17.43;63.85;99464.09;4995086;28;20062;-84
2023/08/29 03:03:23;;;;;;;6.90;5.03;;;;;;;17.44;63.45;99468.44;5012875;28;20089;-83
2023/08/29 03:05:57;;;;;;;6.95;5.53;;;;;;;17.43;63.77;99460.59;5013350;28;20534;-83
2023/08/29 03:08:24;;;;;;;7.28;6.18;;;;;;;17.45;63.56;99463.94;5013017;28;20104;-84
2023/08/29 03:10:52;;;;;;;10.23;6.57;;;;;;;17.45;63.50;99461.28;5012843;28;20050;-84
2023/08/29 03:13:18;;;;;;;6.95;6.25;;;;;;;17.44;63.43;99452.50;4995359;28;20058;-83
2023/08/29 03:15:46;;;;;;;7.43;6.63;;;;;;;17.44;63.77;99448.97;5012680;28;20056;-84
2023/08/29 03:18:12;;;;;;;8.60;7.45;;;;;;;17.45;63.66;99445.31;5012538;28;20046;-84
2023/08/29 03:20:40;;;;;;;7.38;6.70;;;;;;;17.44;63.99;99443.66;4994629;28;20045;-84
2023/08/29 03:23:06;;;;;;;7.50;6.68;;;;;;;17.44;64.04;99436.53;4995224;28;20053;-84
2023/08/29 03:25:33;;;;;;;7.25;6.13;;;;;;;17.43;63.77;99442.81;5012513;28;20050;-83
2023/08/29 03:27:59;;;;;;;6.03;5.43;;;;;;;17.43;63.91;99441.97;5012162;28;20049;-83
2023/08/29 03:30:26;;;;;;;10.27;6.03;;;;;;;17.41;63.90;99446.59;5020954;28;20057;-83
2023/08/29 03:32:53;;;;;;;7.55;6.43;;;;;;;17.41;63.92;99439.47;5012374;28;20433;-83
2023/08/29 03:35:20;;;;;;;6.93;6.00;;;;;;;17.41;64.36;99446.59;4995111;28;20068;-83
2023/08/29 03:37:46;;;;;;;10.60;7.47;;;;;;;17.41;64.41;99443.94;5012218;28;20477;-83
2023/08/29 03:40:13;;;;;;;9.27;7.88;;;;;;;17.41;64.32;99443.94;5012004;28;20047;-84
2023/08/29 03:42:40;;;;;;;7.70;7.00;;;;;;;17.42;64.11;99437.66;5011877;28;20042;-84
2023/08/29 03:45:08;;;;;;;7.68;6.88;;;;;;;17.43;64.35;99431.34;5012064;28;20089;-84
2023/08/29 03:47:39;;;;;;;7.90;6.38;;;;;;;17.42;64.47;99433.16;5011949;28;20052;-84
2023/08/29 03:50:06;;;;;;;8.57;6.88;;;;;;;17.45;64.63;99434.69;4994177;28;20053;-83
2023/08/29 03:52:33;;;;;;;7.50;6.65;;;;;;;17.45;64.51;99427.56;4994518;28;20049;-84
2023/08/29 03:54:59;;;;;;;7.88;7.10;;;;;;;17.48;64.79;99430.91;5012034;28;20058;-84
2023/08/29 03:57:28;;;;;;;7.55;6.80;;;;;;;17.49;64.74;99430.75;5011484;28;20046;-83
2023/08/29 03:59:55;;;;;;;6.95;6.35;;;;;;;17.51;64.39;99423.50;5011610;28;20046;-83
2023/08/29 04:02:22;;;;;;;7.22;6.38;;;;;;;17.51;64.21;99412.84;5011303;28;20141;-84
2023/08/29 04:04:51;;;;;;;9.82;6.90;;;;;;;17.51;64.34;99420.00;5011747;28;20060;-83
2023/08/29 04:07:18;;;;;;;9.25;7.93;;;;;;;17.52;64.29;99421.66;5010869;28;20046;-84
2023/08/29 04:09:45;;;;;;;9.93;7.53;;;;;;;17.52;64.62;99419.84;5011404;28;20052;-84
2023/08/29 04:12:11;;;;;;;12.25;8.27;;;;;;;17.52;64.53;99411.00;5011586;28;20050;-84
2023/08/29 04:14:37;;;;;;;8.90;7.47;;;;;;;17.53;64.52;99410.06;4993881;28;20063;-84
2023/08/29 04:17:04;;;;;;;9.38;7.85;;;;;;;17.52;64.06;99406.53;5011469;28;20050;-84
2023/08/29 04:19:30;;;;;;;8.88;6.75;;;;;;;17.50;64.23;99403.19;5011321;28;20061;-83
2023/08/29 04:21:57;;;;;;;8.05;7.25;;;;;;;17.51;64.01;99398.69;5012115;28;20445;-84
2023/08/29 04:24:23;;;;;;;9.18;7.47;;;;;;;17.49;64.01;99396.16;4994053;28;20089;-84
2023/08/29 04:26:50;;;;;;;9.13;6.93;;;;;;;17.46;64.00;99396.47;5011818;28;20054;-84
2023/08/29 04:29:16;;;;;;;8.20;6.50;;;;;;;17.42;63.72;99395.06;4994469;28;20052;-84
2023/08/29 04:31:43;;;;;;;7.97;5.97;;;;;;;17.39;63.58;99395.34;5011630;28;20042;-83
2023/08/29 04:34:10;;;;;;;8.05;7.00;;;;;;;17.35;63.91;99392.16;4994157;28;20121;-83
2023/08/29 04:36:36;;;;;;;7.88;7.18;;;;;;;17.32;63.72;99395.91;4993963;28;20060;-83
2023/08/29 04:39:03;;;;;;;11.75;7.45;;;;;;;17.28;63.67;99393.69;4994283;28;20089;-84
2023/08/29 04:41:30;;;;;;;8.80;7.28;;;;;;;17.25;63.92;99385.97;5020093;28;20054;-83
2023/08/29 04:43:56;;;;;;;11.77;7.65;;;;;;;17.23;64.02;99377.31;5011825;28;20050;-83
2023/08/29 04:46:22;;;;;;;8.43;7.55;;;;;;;17.20;64.26;99375.75;5011450;28;20046;-83
2023/08/29 04:48:49;;;;;;;9.07;8.05;;;;;;;17.19;64.17;99376.72;5011582;28;20042;-84
2023/08/29 04:51:15;;;;;;;7.10;6.40;;;;;;;17.18;64.26;99380.38;5011755;28;20060;-84
2023/08/29 04:53:42;;;;;;;9.70;8.20;;;;;;;17.16;63.97;99379.69;5011768;28;20073;-84
2023/08/29 04:56:08;;;;;;;9.75;8.00;;;;;;;17.13;64.30;99372.81;5018106;28;20053;-83
2023/08/29 04:58:35;;;;;;;9.52;7.63;;;;;;;17.12;63.87;99372.97;5013052;28;20444;-83
2023/08/29 05:01:02;;;;;;;10.40;7.85;;;;;;;17.10;64.25;99369.59;5011813;28;20049;-83
2023/08/29 05:03:28;;;;;;;8.90;8.10;;;;;;;17.08;64.03;99364.41;5011810;28;20124;-84
2023/08/29 05:05:57;;;;;;;10.38;8.15;;;;;;;17.08;64.49;99375.03;5011708;28;20134;-86
2023/08/29 05:08:24;;;;;;;8.95;8.05;;;;;;;17.06;64.28;99369.03;5050405;22;20057;-80
2023/08/29 05:10:50;;;;;;;9.30;8.05;;;;;;;17.06;64.40;99372.53;5049693;28;20049;-76
2023/08/29 05:13:17;;;;;;;9.40;8.40;;;;;;;17.06;64.35;99377.00;5048936;28;20049;-81
2023/08/29 05:15:43;;;;;;;10.25;8.35;;;;;;;17.05;64.82;99380.66;5049924;28;20112;-77
2023/08/29 05:18:10;;;;;;;8.73;7.82;;;;;;;17.05;64.48;99388.63;5033551;28;20053;-77
2023/08/29 05:20:37;;;;;;;9.20;8.30;;;;;;;17.05;64.79;99391.28;5053561;28;20055;-79
2023/08/29 05:23:04;;;;;;;9.43;8.45;;;;;;;17.05;64.84;99394.78;5036350;28;20493;-77
2023/08/29 05:25:31;;;;;;;10.15;7.88;;;;;;;17.05;64.77;99392.13;5054230;28;20145;-76
2023/08/29 05:27:57;;;;;;;12.00;8.98;;;;;;;17.06;64.94;99388.50;5062518;28;20089;-78
2023/08/29 05:30:24;;;;;;;14.07;9.88;;;;;;;17.06;65.14;99391.16;5053978;28;20120;-76
2023/08/29 05:32:50;;;;;;;11.40;9.63;;;;;;;17.08;65.09;99385.69;5028376;28;20110;-76
2023/08/29 05:35:17;;;;;;;14.85;10.13;;;;;;;17.10;65.38;99383.72;5054148;28;20136;-77
2023/08/29 05:37:44;;;;;;;11.02;9.93;;;;;;;17.13;65.11;99399.41;5053980;28;20648;-76
2023/08/29 05:40:10;;;;;;;11.10;9.40;;;;;;;17.14;65.42;99400.25;5053778;28;20123;-79
2023/08/29 05:42:37;;;;;;;11.50;9.82;;;;;;;17.16;65.51;99396.47;5036386;28;20159;-77
2023/08/29 05:45:04;;;;;;;12.30;9.52;;;;;;;17.19;65.27;99398.00;5054053;28;20592;-78
2023/08/29 05:47:31;;;;;;;10.98;9.85;;;;;;;17.22;65.50;99392.41;5053783;28;20053;-79
2023/08/29 05:49:57;;;;;;;9.30;8.30;;;;;;;17.24;65.46;99382.47;5035903;28;20045;-77
2023/08/29 05:52:24;;;;;;;10.48;9.43;;;;;;;17.26;65.33;99383.16;5053765;28;20574;-77
2023/08/29 05:54:51;;;;;;;13.57;9.95;;;;;;;17.30;65.51;99391.69;5053958;28;20099;-76
2023/08/29 05:57:17;;;;;;;12.75;9.90;;;;;;;17.32;65.48;99382.59;5036084;28;20073;-80
2023/08/29 05:59:43;;;;;;;15.20;10.05;;;;;;;17.35;65.39;99386.81;5035602;28;20056;-78
2023/08/29 06:02:11;;;;;;;12.38;10.77;;;;;;;17.38;65.75;99391.84;5053509;28;20069;-79
2023/08/29 06:04:37;;;;;;;10.32;9.32;;;;;;;17.40;65.86;99378.41;5053344;28;20476;-80
2023/08/29 06:07:05;;;;;;;11.98;10.00;;;;;;;17.45;65.99;99386.78;5053767;28;20468;-79
2023/08/29 06:09:34;;;;;;;13.63;11.23;;;;;;;17.48;65.78;99386.53;5053378;28;20087;-77
2023/08/29 06:12:02;;;;;;;12.68;10.82;;;;;;;17.52;65.85;99382.59;5053414;28;20084;-76
2023/08/29 06:14:29;;;;;;;12.10;10.13;;;;;;;17.56;65.88;99385.81;5053197;28;20804;-80
2023/08/29 06:16:55;;;;;;;12.45;9.23;;;;;;;17.59;65.97;99380.19;5051625;28;20129;-77
2023/08/29 06:19:22;;;;;;;11.15;9.98;;;;;;;17.64;65.75;99385.09;5051938;28;20619;-77
2023/08/29 06:21:49;;;;;;;11.25;9.13;;;;;;;17.67;65.62;99366.16;5053067;28;20088;-77
2023/08/29 06:24:15;;;;;;;12.75;10.05;;;;;;;17.71;65.81;99362.25;5053317;28;20430;-80
2023/08/29 06:26:42;;;;;;;12.20;10.52;;;;;;;17.75;65.98;99374.28;5053270;28;20122;-76
2023/08/29 06:29:09;;;;;;;13.73;10.68;;;;;;;17.78;65.97;99371.34;5052457;28;20102;-76
2023/08/29 06:31:40;;;;;;;11.10;10.00;;;;;;;17.81;65.90;99370.22;5131680;22;20114;-86
2023/08/29 06:34:07;;;;;;;11.02;8.70;;;;;;;17.88;65.95;99370.47;5068431;28;20474;-83
2023/08/29 06:36:34;;;;;;;10.25;8.85;;;;;;;17.90;65.76;99372.00;5063616;28;20044;-83
2023/08/29 06:39:02;;;;;;;9.88;7.95;;;;;;;17.94;66.03;99373.41;5066652;28;20048;-83
2023/08/29 06:41:28;;;;;;;9.07;8.25;;;;;;;17.99;65.90;99372.97;5075852;28;20144;-83
2023/08/29 06:43:55;;;;;;;10.15;9.10;;;;;;;18.03;65.97;99377.03;5047755;28;20049;-83
2023/08/29 06:46:23;;;;;;;11.88;8.57;;;;;;;18.10;66.07;99382.63;5074255;28;20101;-83
2023/08/29 06:48:49;;;;;;;10.85;7.72;;;;;;;18.15;65.92;99374.19;5073963;28;20047;-83
2023/08/29 06:51:16;;;;;;;13.02;7.93;;;;;;;18.21;65.87;99376.28;5047486;28;20123;-83
2023/08/29 06:53:42;;;;;;;11.55;9.20;;;;;;;18.25;65.90;99383.00;5056081;28;20143;-83
2023/08/29 06:56:09;;;;;;;9.93;8.05;;;;;;;18.30;65.71;99386.06;5074086;28;20128;-83
2023/08/29 06:58:36;;;;;;;9.95;7.53;;;;;;;18.35;66.00;99386.44;5055434;28;20045;-83
2023/08/29 07:01:03;;;;;;;9.10;7.55;;;;;;;18.40;65.58;99383.34;5055561;28;20135;-83
2023/08/29 07:03:30;;;;;;;7.38;6.68;;;;;;;18.47;65.76;99380.94;5056012;28;20053;-83
2023/08/29 07:05:56;;;;;;;9.07;8.18;;;;;;;18.53;65.86;99382.13;5073298;28;20049;-83
2023/08/29 07:08:23;;;;;;;11.38;8.60;;;;;;;18.58;66.06;99383.38;5072795;28;20131;-83
2023/08/29 07:10:49;;;;;;;8.77;7.45;;;;;;;18.64;65.45;99381.13;5055029;28;20054;-83
2023/08/29 07:13:16;;;;;;;10.45;7.85;;;;;;;18.69;65.09;99384.19;5055200;28;20109;-83
2023/08/29 07:15:43;;;;;;;11.07;7.88;;;;;;;18.73;65.32;99394.38;5073548;28;20048;-83
2023/08/29 07:18:09;;;;;;;8.15;6.60;;;;;;;18.77;65.24;99389.59;5072721;28;20558;-83
2023/08/29 07:20:37;;;;;;;7.53;6.75;;;;;;;18.82;65.49;99392.66;5055284;28;20067;-82
2023/08/29 07:23:04;;;;;;;8.88;7.90;;;;;;;18.87;65.41;99398.38;5055460;28;20056;-83
2023/08/29 07:25:39;;;;;;;8.63;6.90;;;;;;;18.89;65.05;99396.38;5055091;28;20137;-82
2023/08/29 07:28:08;;;;;;;9.63;6.20;;;;;;;18.96;65.03;99396.63;5072859;28;20048;-83
2023/08/29 07:30:38;;;;;;;9.32;6.68;;;;;;;19.01;65.14;99394.34;5072677;28;20057;-83
2023/08/29 07:33:04;;;;;;;9.75;6.82;;;;;;;19.05;64.72;99394.03;5055497;28;20136;-83
2023/08/29 07:35:31;;;;;;;8.52;6.32;;;;;;;19.10;64.87;99394.47;5055068;28;20052;-83
2023/08/29 07:37:57;;;;;;;8.43;5.97;;;;;;;19.14;64.99;99391.31;5072978;28;20048;-83
2023/08/29 07:40:24;;;;;;;8.40;6.53;;;;;;;19.20;64.91;99397.03;5071564;28;20072;-83
2023/08/29 07:42:50;;;;;;;8.35;5.82;;;;;;;19.24;64.97;99393.06;5072502;28;20059;-83
2023/08/29 07:45:17;;;;;;;7.68;5.70;;;;;;;19.30;64.87;99392.47;5073053;28;20677;-83
2023/08/29 07:47:43;;;;;;;7.45;5.47;;;;;;;19.36;64.95;99397.19;5054870;28;20353;-83
2023/08/29 07:50:10;;;;;;;7.80;5.85;;;;;;;19.43;65.07;99392.06;5072304;28;20486;-83
2023/08/29 07:52:37;;;;;;;7.85;5.60;;;;;;;19.49;64.50;99395.97;5072697;28;20044;-83
2023/08/29 07:55:07;;;;;;;6.85;5.05;;;;;;;19.55;64.63;99400.66;5072682;28;20040;-83
2023/08/29 07:57:34;;;;;;;7.43;5.25;;;;;;;19.61;64.48;99401.88;5054638;28;20044;-83
2023/08/29 08:00:01;;;;;;;5.80;4.43;;;;;;;19.66;64.75;99399.56;5072058;28;20087;-83
2023/08/29 08:02:27;;;;;;;6.47;5.55;;;;;;;19.71;64.53;99409.81;5072770;28;20049;-83
2023/08/29 08:04:54;;;;;;;7.72;5.20;;;;;;;19.75;64.00;99405.81;5054820;28;20052;-83
2023/08/29 08:07:20;;;;;;;6.43;4.93;;;;;;;19.80;64.38;99408.88;5071900;28;20416;-83
2023/08/29 08:09:47;;;;;;;6.88;4.53;;;;;;;19.85;64.17;99408.41;5071949;28;20109;-83
2023/08/29 08:12:13;;;;;;;6.03;4.90;;;;;;;19.90;64.29;99416.78;5054451;28;20076;-83
2023/08/29 08:14:40;;;;;;;6.32;4.82;;;;;;;19.94;64.08;99407.47;5072106;28;20473;-83
2023/08/29 08:17:06;;;;;;;6.78;4.45;;;;;;;20.00;63.98;99408.69;5054365;28;20128;-83
2023/08/29 08:19:33;;;;;;;6.43;4.90;;;;;;;20.04;63.96;99404.72;5072441;28;20102;-83
2023/08/29 08:22:00;;;;;;;7.10;4.22;;;;;;;20.12;64.07;99411.94;5071587;28;20055;-83
2023/08/29 08:24:26;;;;;;;6.97;4.20;;;;;;;20.18;64.13;99411.28;5071971;28;20098;-83
2023/08/29 08:26:53;;;;;;;6.38;4.20;;;;;;;20.25;63.84;99414.16;5053866;28;20443;-83
2023/08/29 08:29:19;;;;;;;4.47;3.78;;;;;;;20.33;63.87;99416.88;5053962;28;20122;-83
2023/08/29 08:31:46;;;;;;;6.65;4.95;;;;;;;20.43;64.07;99414.09;5053622;28;20550;-83
2023/08/29 08:34:13;;;;;;;5.57;2.95;;;;;;;20.53;63.51;99416.66;5071971;28;20060;-83
2023/08/29 08:36:39;;;;;;;6.63;3.70;;;;;;;20.61;63.81;99419.34;5071382;28;20052;-83
2023/08/29 08:39:06;;;;;;;3.55;2.80;;;;;;;20.69;63.45;99421.22;5054073;28;20130;-84
2023/08/29 08:41:33;;;;;;;5.03;2.40;;;;;;;20.77;62.87;99423.06;5071396;28;20581;-83
2023/08/29 08:44:04;;;;;;;2.53;1.98;;;;;;;20.86;61.94;99423.94;5053539;28;20056;-84
2023/08/29 08:46:33;;;;;;;2.92;1.10;;;;;;;20.93;61.96;99420.47;5071218;28;20048;-84
2023/08/29 08:49:01;;;;;;;3.80;1.80;;;;;;;21.01;62.29;99419.66;5071401;28;20049;-84
2023/08/29 08:51:30;;;;;;;3.72;1.70;;;;;;;21.09;61.76;99419.66;5071437;28;20556;-83
2023/08/29 08:53:57;;;;;;;4.55;2.00;;;;;;;21.16;61.77;99427.88;5071787;28;20479;-84
2023/08/29 08:56:24;;;;;;;2.28;1.77;;;;;;;21.25;61.23;99422.53;5071496;28;20106;-85
2023/08/29 08:58:50;;;;;;;6.05;2.58;;;;;;;21.29;60.87;99423.88;5071171;28;20041;-84
2023/08/29 09:01:17;;;;;;;4.10;2.13;;;;;;;21.36;60.73;99419.53;5071234;28;20102;-83
2023/08/29 09:03:45;;;;;;;4.57;2.83;;;;;;;21.42;60.05;99429.56;5071232;28;20113;-84
2023/08/29 09:06:14;;;;;;;3.42;2.50;;;;;;;21.47;60.11;99426.41;5053451;28;20044;-83
2023/08/29 09:08:41;;;;;;;3.00;2.00;;;;;;;21.56;60.28;99432.59;5071446;28;20059;-84
2023/08/29 09:11:08;;;;;;;2.80;1.30;;;;;;;21.60;59.44;99428.56;5053234;28;20419;-84
2023/08/29 09:13:35;;;;;;;2.28;1.40;;;;;;;21.64;59.68;99427.22;5053404;28;20098;-84
2023/08/29 09:16:01;;;;;;;6.05;2.03;;;;;;;21.69;59.60;99432.94;5071215;28;20418;-84
2023/08/29 09:18:31;;;;;;;2.83;1.58;;;;;;;21.77;59.44;99434.78;5071821;28;20108;-84
2023/08/29 09:21:01;;;;;;;1.90;1.42;;;;;;;21.82;59.75;99439.63;5053277;28;20048;-84
2023/08/29 09:23:29;;;;;;;6.18;2.00;;;;;;;21.86;59.88;99430.25;5053141;28;20041;-84
2023/08/29 09:25:58;;;;;;;4.60;1.85;;;;;;;21.96;59.75;99430.94;5071021;28;20550;-83
2023/08/29 09:28:29;;;;;;;4.93;1.75;;;;;;;22.04;59.40;99426.53;5071492;28;20418;-84
2023/08/29 09:31:04;;;;;;;2.10;1.77;;;;;;;22.15;59.93;99426.19;5070482;28;20147;-84
2023/08/29 09:33:32;;;;;;;1.60;1.48;;;;;;;22.31;60.00;99419.94;5053349;28;20529;-84
2023/08/29 09:36:04;;;;;;;4.28;1.80;;;;;;;22.45;59.73;99428.25;5070835;28;20045;-84
2023/08/29 09:38:32;;;;;;;2.55;1.60;;;;;;;22.61;59.93;99424.72;5070829;28;20044;-84
2023/08/29 09:41:00;;;;;;;3.30;1.73;;;;;;;22.76;58.20;99428.34;5052952;28;20056;-84
2023/08/29 09:43:28;;;;;;;2.40;1.50;;;;;;;22.89;58.55;99425.09;5070674;28;20083;-84
2023/08/29 09:45:56;;;;;;;2.70;1.63;;;;;;;23.02;58.52;99426.34;5052893;28;20510;-83
2023/08/29 09:48:23;;;;;;;2.40;1.38;;;;;;;23.15;57.81;99428.44;5071025;28;20122;-84
2023/08/29 09:50:51;;;;;;;3.78;1.55;;;;;;;23.22;57.50;99421.38;5070419;28;20497;-84
2023/08/29 09:53:19;;;;;;;3.05;1.92;;;;;;;23.27;56.69;99420.81;5071064;28;20131;-84
2023/08/29 09:55:49;;;;;;;2.55;1.23;;;;;;;23.25;55.35;99418.28;5071002;28;20048;-84
2023/08/29 09:58:17;;;;;;;3.15;1.88;;;;;;;23.22;54.90;99424.03;5070862;28;20072;-83
2023/08/29 10:00:45;;;;;;;2.15;1.48;;;;;;;23.13;55.05;99417.88;5070807;28;20048;-84
2023/08/29 10:03:12;;;;;;;3.03;1.77;;;;;;;23.00;54.69;99415.81;5070561;28;20491;-84
2023/08/29 10:05:40;;;;;;;3.42;1.70;;;;;;;22.89;54.33;99419.72;5074355;28;20131;-84
2023/08/29 10:08:29;;;;;;;2.10;1.40;;;;;;;22.72;55.10;99412.78;5056079;28;20048;-84
2023/08/29 10:10:56;;;;;;;3.80;2.10;;;;;;;22.68;55.28;99406.91;5073987;28;20413;-84
2023/08/29 10:13:24;;;;;;;2.83;1.80;;;;;;;22.60;55.47;99405.09;5056385;28;20044;-84
2023/08/29 10:15:51;;;;;;;3.92;1.90;;;;;;;22.56;55.63;99402.94;5073999;28;20057;-84
2023/08/29 10:18:18;;;;;;;4.85;2.13;;;;;;;22.50;55.52;99405.28;5073813;28;20135;-84
2023/08/29 10:20:45;;;;;;;3.33;1.45;;;;;;;22.47;55.46;99402.94;5073936;28;20410;-83
2023/08/29 10:23:15;;;;;;;2.40;1.30;;;;;;;22.46;55.59;99403.97;5056202;28;20471;-84
2023/08/29 10:25:45;;;;;;;2.15;1.33;;;;;;;22.48;56.33;99401.94;5074285;28;20494;-84
2023/08/29 10:28:13;;;;;;;3.80;1.73;;;;;;;22.54;56.70;99402.25;5073835;28;20176;-84
2023/08/29 10:30:44;;;;;;;2.83;1.60;;;;;;;22.63;56.17;99403.91;5073760;28;20406;-84
2023/08/29 10:33:12;;;;;;;2.13;1.23;;;;;;;22.73;56.14;99404.53;5073698;28;20055;-84
2023/08/29 10:35:38;;;;;;;3.58;1.50;;;;;;;22.85;56.71;99404.13;5056019;28;20106;-84
2023/08/29 10:38:15;;;;;;;3.15;1.50;;;;;;;22.89;55.43;99403.63;5073814;28;20053;-84
2023/08/29 10:40:43;;;;;;;2.38;1.77;;;;;;;22.99;55.12;99395.31;5055532;28;20045;-84
2023/08/29 10:43:24;;;;;;;2.63;1.15;;;;;;;22.99;54.65;99400.69;5055554;28;20430;-83
2023/08/29 10:45:53;;;;;;;1.30;1.10;;;;;;;23.04;53.57;99395.66;5055609;28;20060;-84
2023/08/29 10:48:23;;;;;;;2.35;1.13;;;;;;;23.04;54.58;99394.78;5073714;28;20577;-83
2023/08/29 10:51:09;;;;;;;2.47;1.35;;;;;;;22.97;54.00;99386.63;5073164;28;20078;-84
2023/08/29 10:53:48;;;;;;;3.78;1.40;;;;;;;22.94;53.45;99383.47;5074015;28;20099;-83
2023/08/29 10:56:17;;;;;;;1.90;1.70;;;;;;;22.97;54.35;99389.31;5073488;28;20510;-83
2023/08/29 10:58:47;;;;;;;3.22;1.90;;;;;;;22.98;54.97;99379.38;5073289;28;20048;-83
2023/08/29 11:01:26;;;;;;;5.72;1.80;;;;;;;23.01;55.31;99385.25;5073251;28;20056;-83
2023/08/29 11:03:55;;;;;;;1.80;1.60;;;;;;;23.17;55.47;99386.97;5073210;28;20056;-83
2023/08/29 11:06:25;;;;;;;3.13;1.30;;;;;;;23.28;54.67;99385.72;5073290;28;20106;-83
2023/08/29 11:09:16;;;;;;;2.08;1.52;;;;;;;23.40;53.47;99385.34;5055561;28;20318;-83
2023/08/29 11:11:43;;;;;;;2.13;1.25;;;;;;;23.60;54.55;99377.59;5047073;28;20090;-84
2023/08/29 11:14:10;;;;;;;1.50;1.40;;;;;;;23.70;54.08;99377.34;5055520;28;20091;-83
2023/08/29 11:17:12;;;;;;;1.33;1.23;;;;;;;23.77;53.09;99377.44;5072551;28;20044;-84
2023/08/29 11:19:39;;;;;;;3.58;1.25;;;;;;;23.92;53.23;99367.53;5055700;28;20557;-84
2023/08/29 11:22:05;;;;;;;3.33;1.10;;;;;;;24.03;52.93;99374.28;5053023;28;20048;-83
2023/08/29 11:24:33;;;;;;;1.67;0.90;;;;;;;24.11;52.24;99364.50;5073423;28;20049;-85
2023/08/29 11:26:59;;;;;;;2.00;1.10;;;;;;;24.19;51.72;99369.78;5054825;28;20080;-84
2023/08/29 11:29:34;;;;;;;1.75;1.00;;;;;;;24.20;51.00;99361.53;5072661;28;20132;-83
2023/08/29 11:32:01;;;;;;;2.03;1.10;;;;;;;24.28;51.87;99374.03;5072537;28;20058;-84
2023/08/29 11:34:27;;;;;;;1.90;1.15;;;;;;;24.32;51.54;99367.28;5054887;28;20131;-84